sensor_id;sensor_type;location;lat;lon;timestamp;P1;durP1;ratioP1;P2;durP2;ratioP2
12962;SDS011;6546;49.882;8.666;2023-02-18T00:01:28;7.90;;;7.20;;
12962;SDS011;6546;49.882;8.666;2023-02-18T00:03:55;8.13;;;7.37;;
12962;SDS011;6546;49.882;8.666;2023-02-18T00:06:24;7.47;;;6.70;;
12962;SDS011;6546;49.882;8.666;2023-02-18T00:08:52;7.03;;;6.43;;
12962;SDS011;6546;49.882;8.666;2023-02-18T00:11:21;7.80;;;7.10;;
12962;SDS011;6546;49.882;8.666;2023-02-18T00:13:54;7.43;;;6.63;;
12962;SDS011;6546;49.882;8.666;2023-02-18T00:16:22;7.13;;;6.53;;
12962;SDS011;6546;49.882;8.666;2023-02-18T00:18:50;7.67;;;6.97;;
12962;SDS011;6546;49.882;8.666;2023-02-18T00:21:19;7.87;;;7.17;;
12962;SDS011;6546;49.882;8.666;2023-02-18T00:23:46;7.60;;;6.90;;
12962;SDS011;6546;49.882;8.666;2023-02-18T00:26:14;9.13;;;7.60;;
12962;SDS011;6546;49.882;8.666;2023-02-18T00:28:42;8.43;;;7.70;;
12962;SDS011;6546;49.882;8.666;2023-02-18T00:31:10;8.43;;;7.73;;
12962;SDS011;6546;49.882;8.666;2023-02-18T00:33:39;9.43;;;8.53;;
12962;SDS011;6546;49.882;8.666;2023-02-18T00:36:07;9.93;;;8.63;;
12962;SDS011;6546;49.882;8.666;2023-02-18T00:38:36;9.40;;;8.50;;
12962;SDS011;6546;49.882;8.666;2023-02-18T00:41:02;10.27;;;9.27;;
12962;SDS011;6546;49.882;8.666;2023-02-18T00:43:30;10.27;;;9.37;;
12962;SDS011;6546;49.882;8.666;2023-02-18T00:45:57;10.27;;;9.37;;
12962;SDS011;6546;49.882;8.666;2023-02-18T00:48:25;10.33;;;9.43;;
12962;SDS011;6546;49.882;8.666;2023-02-18T00:50:51;10.37;;;9.37;;
12962;SDS011;6546;49.882;8.666;2023-02-18T00:53:18;9.93;;;9.03;;
12962;SDS011;6546;49.882;8.666;2023-02-18T00:55:46;10.60;;;9.70;;
12962;SDS011;6546;49.882;8.666;2023-02-18T00:58:13;10.53;;;9.60;;
12962;SDS011;6546;49.882;8.666;2023-02-18T01:00:41;10.73;;;9.73;;
12962;SDS011;6546;49.882;8.666;2023-02-18T01:03:08;17.97;;;10.70;;
12962;SDS011;6546;49.882;8.666;2023-02-18T01:05:36;10.80;;;9.70;;
12962;SDS011;6546;49.882;8.666;2023-02-18T01:08:03;11.23;;;10.17;;
12962;SDS011;6546;49.882;8.666;2023-02-18T01:10:30;10.87;;;9.83;;
12962;SDS011;6546;49.882;8.666;2023-02-18T01:12:57;11.67;;;10.63;;
12962;SDS011;6546;49.882;8.666;2023-02-18T01:15:24;11.23;;;10.23;;
12962;SDS011;6546;49.882;8.666;2023-02-18T01:17:51;12.57;;;11.37;;
12962;SDS011;6546;49.882;8.666;2023-02-18T01:20:18;11.70;;;10.70;;
12962;SDS011;6546;49.882;8.666;2023-02-18T01:22:46;12.70;;;11.50;;
12962;SDS011;6546;49.882;8.666;2023-02-18T01:25:13;11.77;;;10.57;;
12962;SDS011;6546;49.882;8.666;2023-02-18T01:27:40;12.03;;;10.93;;
12962;SDS011;6546;49.882;8.666;2023-02-18T01:30:08;11.97;;;10.80;;
12962;SDS011;6546;49.882;8.666;2023-02-18T01:32:37;11.80;;;10.60;;
12962;SDS011;6546;49.882;8.666;2023-02-18T01:35:04;11.70;;;10.53;;
12962;SDS011;6546;49.882;8.666;2023-02-18T01:37:31;11.10;;;10.03;;
12962;SDS011;6546;49.882;8.666;2023-02-18T01:40:00;11.27;;;10.23;;
12962;SDS011;6546;49.882;8.666;2023-02-18T01:42:27;10.67;;;9.67;;
12962;SDS011;6546;49.882;8.666;2023-02-18T01:45:23;9.97;;;9.07;;
12962;SDS011;6546;49.882;8.666;2023-02-18T01:48:02;9.33;;;8.47;;
12962;SDS011;6546;49.882;8.666;2023-02-18T01:50:31;10.00;;;9.20;;
12962;SDS011;6546;49.882;8.666;2023-02-18T01:53:00;9.20;;;8.50;;
12962;SDS011;6546;49.882;8.666;2023-02-18T01:55:29;8.83;;;7.90;;
12962;SDS011;6546;49.882;8.666;2023-02-18T01:57:55;8.13;;;7.33;;
12962;SDS011;6546;49.882;8.666;2023-02-18T02:00:22;7.87;;;7.17;;
12962;SDS011;6546;49.882;8.666;2023-02-18T02:05:21;7.77;;;7.07;;
12962;SDS011;6546;49.882;8.666;2023-02-18T02:07:49;10.03;;;7.60;;
12962;SDS011;6546;49.882;8.666;2023-02-18T02:10:18;8.23;;;7.53;;
12962;SDS011;6546;49.882;8.666;2023-02-18T02:12:50;8.37;;;7.57;;
12962;SDS011;6546;49.882;8.666;2023-02-18T02:15:25;8.50;;;7.60;;
12962;SDS011;6546;49.882;8.666;2023-02-18T02:18:04;10.17;;;9.00;;
12962;SDS011;6546;49.882;8.666;2023-02-18T02:29:49;10.10;;;9.17;;
12962;SDS011;6546;49.882;8.666;2023-02-18T02:32:42;10.30;;;9.40;;
12962;SDS011;6546;49.882;8.666;2023-02-18T02:35:29;10.70;;;9.70;;
12962;SDS011;6546;49.882;8.666;2023-02-18T02:37:59;11.40;;;10.37;;
12962;SDS011;6546;49.882;8.666;2023-02-18T02:40:33;11.77;;;10.67;;
12962;SDS011;6546;49.882;8.666;2023-02-18T02:43:05;11.33;;;10.23;;
12962;SDS011;6546;49.882;8.666;2023-02-18T02:45:43;11.37;;;10.17;;
12962;SDS011;6546;49.882;8.666;2023-02-18T02:48:28;10.87;;;9.87;;
12962;SDS011;6546;49.882;8.666;2023-02-18T02:51:05;11.13;;;10.07;;
12962;SDS011;6546;49.882;8.666;2023-02-18T02:53:41;10.87;;;9.87;;
12962;SDS011;6546;49.882;8.666;2023-02-18T02:56:09;10.73;;;9.63;;
12962;SDS011;6546;49.882;8.666;2023-02-18T02:58:40;10.30;;;9.27;;
12962;SDS011;6546;49.882;8.666;2023-02-18T03:01:12;10.60;;;9.50;;
12962;SDS011;6546;49.882;8.666;2023-02-18T03:03:57;10.10;;;9.13;;
12962;SDS011;6546;49.882;8.666;2023-02-18T03:09:42;9.27;;;8.37;;
12962;SDS011;6546;49.882;8.666;2023-02-18T03:12:22;10.40;;;9.30;;
12962;SDS011;6546;49.882;8.666;2023-02-18T03:14:55;10.93;;;9.50;;
12962;SDS011;6546;49.882;8.666;2023-02-18T03:17:30;10.37;;;9.47;;
12962;SDS011;6546;49.882;8.666;2023-02-18T03:20:02;10.37;;;9.43;;
12962;SDS011;6546;49.882;8.666;2023-02-18T03:22:43;10.90;;;9.90;;
12962;SDS011;6546;49.882;8.666;2023-02-18T03:25:16;10.83;;;9.83;;
12962;SDS011;6546;49.882;8.666;2023-02-18T03:27:45;10.43;;;9.43;;
12962;SDS011;6546;49.882;8.666;2023-02-18T03:30:20;10.87;;;9.87;;
12962;SDS011;6546;49.882;8.666;2023-02-18T03:32:51;10.37;;;9.47;;
12962;SDS011;6546;49.882;8.666;2023-02-18T03:35:25;9.40;;;8.50;;
12962;SDS011;6546;49.882;8.666;2023-02-18T03:37:55;9.70;;;8.80;;
12962;SDS011;6546;49.882;8.666;2023-02-18T03:40:28;9.73;;;8.83;;
12962;SDS011;6546;49.882;8.666;2023-02-18T03:42:56;9.67;;;8.67;;
12962;SDS011;6546;49.882;8.666;2023-02-18T03:45:27;9.60;;;8.70;;
12962;SDS011;6546;49.882;8.666;2023-02-18T03:47:54;10.37;;;9.00;;
12962;SDS011;6546;49.882;8.666;2023-02-18T03:50:20;10.00;;;9.10;;
12962;SDS011;6546;49.882;8.666;2023-02-18T03:52:49;10.20;;;9.30;;
12962;SDS011;6546;49.882;8.666;2023-02-18T03:55:17;9.80;;;8.80;;
12962;SDS011;6546;49.882;8.666;2023-02-18T03:57:44;10.03;;;8.93;;
12962;SDS011;6546;49.882;8.666;2023-02-18T04:00:11;9.57;;;8.60;;
12962;SDS011;6546;49.882;8.666;2023-02-18T04:02:38;10.27;;;9.17;;
12962;SDS011;6546;49.882;8.666;2023-02-18T04:05:05;10.10;;;9.10;;
12962;SDS011;6546;49.882;8.666;2023-02-18T04:07:32;9.53;;;8.63;;
12962;SDS011;6546;49.882;8.666;2023-02-18T04:09:58;8.93;;;8.13;;
12962;SDS011;6546;49.882;8.666;2023-02-18T04:12:26;8.27;;;7.47;;
12962;SDS011;6546;49.882;8.666;2023-02-18T04:14:53;8.50;;;7.70;;
12962;SDS011;6546;49.882;8.666;2023-02-18T04:17:22;8.40;;;7.60;;
12962;SDS011;6546;49.882;8.666;2023-02-18T04:19:48;8.67;;;7.77;;
12962;SDS011;6546;49.882;8.666;2023-02-18T04:22:15;8.27;;;7.13;;
12962;SDS011;6546;49.882;8.666;2023-02-18T04:24:41;6.47;;;5.70;;
12962;SDS011;6546;49.882;8.666;2023-02-18T04:27:08;5.50;;;5.00;;
12962;SDS011;6546;49.882;8.666;2023-02-18T04:29:36;5.60;;;5.10;;
12962;SDS011;6546;49.882;8.666;2023-02-18T04:32:03;5.70;;;5.20;;
12962;SDS011;6546;49.882;8.666;2023-02-18T04:34:30;5.47;;;4.97;;
12962;SDS011;6546;49.882;8.666;2023-02-18T04:36:57;6.00;;;5.50;;
12962;SDS011;6546;49.882;8.666;2023-02-18T04:39:23;7.63;;;6.93;;
12962;SDS011;6546;49.882;8.666;2023-02-18T04:41:50;8.07;;;7.27;;
12962;SDS011;6546;49.882;8.666;2023-02-18T04:44:17;9.03;;;8.13;;
12962;SDS011;6546;49.882;8.666;2023-02-18T04:46:45;9.03;;;8.13;;
12962;SDS011;6546;49.882;8.666;2023-02-18T04:49:11;9.43;;;8.40;;
12962;SDS011;6546;49.882;8.666;2023-02-18T04:51:38;10.10;;;8.83;;
12962;SDS011;6546;49.882;8.666;2023-02-18T04:54:04;9.67;;;8.77;;
12962;SDS011;6546;49.882;8.666;2023-02-18T04:56:31;9.40;;;8.50;;
12962;SDS011;6546;49.882;8.666;2023-02-18T04:58:57;9.70;;;8.70;;
12962;SDS011;6546;49.882;8.666;2023-02-18T05:01:24;9.17;;;8.27;;
12962;SDS011;6546;49.882;8.666;2023-02-18T05:03:52;9.93;;;8.93;;
12962;SDS011;6546;49.882;8.666;2023-02-18T05:06:19;10.77;;;9.07;;
12962;SDS011;6546;49.882;8.666;2023-02-18T05:08:45;10.60;;;9.50;;
12962;SDS011;6546;49.882;8.666;2023-02-18T05:11:12;11.30;;;10.20;;
12962;SDS011;6546;49.882;8.666;2023-02-18T05:13:38;10.97;;;9.87;;
12962;SDS011;6546;49.882;8.666;2023-02-18T05:16:05;10.33;;;9.30;;
12962;SDS011;6546;49.882;8.666;2023-02-18T05:18:31;9.80;;;8.83;;
12962;SDS011;6546;49.882;8.666;2023-02-18T05:21:00;9.63;;;8.73;;
12962;SDS011;6546;49.882;8.666;2023-02-18T05:23:26;9.07;;;8.17;;
12962;SDS011;6546;49.882;8.666;2023-02-18T05:25:53;9.40;;;8.47;;
12962;SDS011;6546;49.882;8.666;2023-02-18T05:28:20;8.57;;;7.77;;
12962;SDS011;6546;49.882;8.666;2023-02-18T05:30:46;8.53;;;7.73;;
12962;SDS011;6546;49.882;8.666;2023-02-18T05:33:13;7.40;;;6.70;;
12962;SDS011;6546;49.882;8.666;2023-02-18T05:35:40;7.87;;;7.17;;
12962;SDS011;6546;49.882;8.666;2023-02-18T05:38:08;7.43;;;6.70;;
12962;SDS011;6546;49.882;8.666;2023-02-18T05:40:35;6.90;;;6.17;;
12962;SDS011;6546;49.882;8.666;2023-02-18T05:43:02;6.47;;;5.87;;
12962;SDS011;6546;49.882;8.666;2023-02-18T05:45:28;6.77;;;6.17;;
12962;SDS011;6546;49.882;8.666;2023-02-18T05:47:55;5.60;;;4.97;;
12962;SDS011;6546;49.882;8.666;2023-02-18T05:50:24;6.70;;;5.80;;
12962;SDS011;6546;49.882;8.666;2023-02-18T05:52:51;5.93;;;5.00;;
12962;SDS011;6546;49.882;8.666;2023-02-18T05:55:19;6.70;;;6.10;;
12962;SDS011;6546;49.882;8.666;2023-02-18T05:57:46;6.13;;;5.53;;
12962;SDS011;6546;49.882;8.666;2023-02-18T06:00:13;6.50;;;5.90;;
12962;SDS011;6546;49.882;8.666;2023-02-18T06:02:40;5.40;;;4.90;;
12962;SDS011;6546;49.882;8.666;2023-02-18T06:05:07;5.57;;;5.00;;
12962;SDS011;6546;49.882;8.666;2023-02-18T06:07:35;6.13;;;4.90;;
12962;SDS011;6546;49.882;8.666;2023-02-18T06:10:02;5.13;;;4.67;;
12962;SDS011;6546;49.882;8.666;2023-02-18T06:12:30;4.93;;;4.43;;
12962;SDS011;6546;49.882;8.666;2023-02-18T06:14:56;5.00;;;4.37;;
12962;SDS011;6546;49.882;8.666;2023-02-18T06:17:23;4.37;;;3.97;;
12962;SDS011;6546;49.882;8.666;2023-02-18T06:19:49;5.83;;;4.03;;
12962;SDS011;6546;49.882;8.666;2023-02-18T06:22:16;4.40;;;4.00;;
12962;SDS011;6546;49.882;8.666;2023-02-18T06:24:43;4.30;;;3.90;;
12962;SDS011;6546;49.882;8.666;2023-02-18T06:27:09;5.20;;;4.70;;
12962;SDS011;6546;49.882;8.666;2023-02-18T06:29:37;4.97;;;4.30;;
12962;SDS011;6546;49.882;8.666;2023-02-18T06:32:04;4.77;;;4.37;;
12962;SDS011;6546;49.882;8.666;2023-02-18T06:34:31;5.07;;;4.57;;
12962;SDS011;6546;49.882;8.666;2023-02-18T06:36:57;4.90;;;4.20;;
12962;SDS011;6546;49.882;8.666;2023-02-18T06:39:24;4.83;;;4.33;;
12962;SDS011;6546;49.882;8.666;2023-02-18T06:41:50;4.87;;;4.37;;
12962;SDS011;6546;49.882;8.666;2023-02-18T06:44:17;4.87;;;4.40;;
12962;SDS011;6546;49.882;8.666;2023-02-18T06:46:45;5.10;;;4.60;;
12962;SDS011;6546;49.882;8.666;2023-02-18T06:49:12;5.00;;;4.33;;
12962;SDS011;6546;49.882;8.666;2023-02-18T06:51:39;5.10;;;4.60;;
12962;SDS011;6546;49.882;8.666;2023-02-18T06:54:06;5.03;;;4.50;;
12962;SDS011;6546;49.882;8.666;2023-02-18T06:56:32;5.23;;;4.73;;
12962;SDS011;6546;49.882;8.666;2023-02-18T06:58:59;5.37;;;4.87;;
12962;SDS011;6546;49.882;8.666;2023-02-18T07:01:25;5.43;;;4.93;;
12962;SDS011;6546;49.882;8.666;2023-02-18T07:03:53;5.80;;;5.13;;
12962;SDS011;6546;49.882;8.666;2023-02-18T07:06:20;5.33;;;4.90;;
12962;SDS011;6546;49.882;8.666;2023-02-18T07:08:47;5.57;;;4.70;;
12962;SDS011;6546;49.882;8.666;2023-02-18T07:11:16;5.60;;;5.10;;
12962;SDS011;6546;49.882;8.666;2023-02-18T07:13:43;5.67;;;5.10;;
12962;SDS011;6546;49.882;8.666;2023-02-18T07:16:10;5.43;;;5.03;;
12962;SDS011;6546;49.882;8.666;2023-02-18T07:18:37;5.40;;;4.90;;
12962;SDS011;6546;49.882;8.666;2023-02-18T07:21:05;5.30;;;4.80;;
12962;SDS011;6546;49.882;8.666;2023-02-18T07:23:31;5.70;;;5.10;;
12962;SDS011;6546;49.882;8.666;2023-02-18T07:26:04;5.63;;;5.13;;
12962;SDS011;6546;49.882;8.666;2023-02-18T07:28:32;6.27;;;5.67;;
12962;SDS011;6546;49.882;8.666;2023-02-18T07:30:58;5.83;;;5.33;;
12962;SDS011;6546;49.882;8.666;2023-02-18T07:33:25;5.93;;;5.33;;
12962;SDS011;6546;49.882;8.666;2023-02-18T07:35:52;5.30;;;4.80;;
12962;SDS011;6546;49.882;8.666;2023-02-18T07:38:20;5.80;;;5.30;;
12962;SDS011;6546;49.882;8.666;2023-02-18T07:40:48;6.00;;;5.40;;
12962;SDS011;6546;49.882;8.666;2023-02-18T07:43:14;6.33;;;5.77;;
12962;SDS011;6546;49.882;8.666;2023-02-18T07:45:41;5.87;;;5.30;;
12962;SDS011;6546;49.882;8.666;2023-02-18T07:48:08;6.67;;;6.00;;
12962;SDS011;6546;49.882;8.666;2023-02-18T07:50:34;6.23;;;5.63;;
12962;SDS011;6546;49.882;8.666;2023-02-18T07:53:02;6.33;;;5.83;;
12962;SDS011;6546;49.882;8.666;2023-02-18T07:55:30;6.83;;;5.47;;
12962;SDS011;6546;49.882;8.666;2023-02-18T07:58:11;8.93;;;6.40;;
12962;SDS011;6546;49.882;8.666;2023-02-18T08:00:38;6.43;;;5.83;;
12962;SDS011;6546;49.882;8.666;2023-02-18T08:03:04;6.37;;;5.80;;
12962;SDS011;6546;49.882;8.666;2023-02-18T08:05:31;7.20;;;6.50;;
12962;SDS011;6546;49.882;8.666;2023-02-18T08:07:58;7.07;;;5.57;;
12962;SDS011;6546;49.882;8.666;2023-02-18T08:10:24;6.37;;;5.50;;
12962;SDS011;6546;49.882;8.666;2023-02-18T08:12:53;6.30;;;4.87;;
12962;SDS011;6546;49.882;8.666;2023-02-18T08:15:19;7.70;;;5.37;;
12962;SDS011;6546;49.882;8.666;2023-02-18T08:17:46;5.13;;;4.73;;
12962;SDS011;6546;49.882;8.666;2023-02-18T08:20:13;6.27;;;5.63;;
12962;SDS011;6546;49.882;8.666;2023-02-18T08:22:40;5.50;;;5.00;;
12962;SDS011;6546;49.882;8.666;2023-02-18T08:25:07;5.73;;;5.10;;
12962;SDS011;6546;49.882;8.666;2023-02-18T08:27:33;5.33;;;4.83;;
12962;SDS011;6546;49.882;8.666;2023-02-18T08:30:02;6.20;;;5.17;;
12962;SDS011;6546;49.882;8.666;2023-02-18T08:32:29;5.40;;;4.90;;
12962;SDS011;6546;49.882;8.666;2023-02-18T08:34:56;5.27;;;4.77;;
12962;SDS011;6546;49.882;8.666;2023-02-18T08:37:22;4.87;;;4.47;;
12962;SDS011;6546;49.882;8.666;2023-02-18T08:39:49;4.93;;;4.43;;
12962;SDS011;6546;49.882;8.666;2023-02-18T08:42:16;5.33;;;4.10;;
12962;SDS011;6546;49.882;8.666;2023-02-18T08:44:44;4.27;;;3.87;;
12962;SDS011;6546;49.882;8.666;2023-02-18T08:47:12;5.97;;;4.73;;
12962;SDS011;6546;49.882;8.666;2023-02-18T08:49:38;4.50;;;3.90;;
12962;SDS011;6546;49.882;8.666;2023-02-18T08:52:05;4.60;;;4.20;;
12962;SDS011;6546;49.882;8.666;2023-02-18T08:54:31;3.97;;;3.60;;
12962;SDS011;6546;49.882;8.666;2023-02-18T08:56:58;6.00;;;3.80;;
12962;SDS011;6546;49.882;8.666;2023-02-18T08:59:25;4.00;;;3.60;;
12962;SDS011;6546;49.882;8.666;2023-02-18T09:01:52;6.80;;;3.20;;
12962;SDS011;6546;49.882;8.666;2023-02-18T09:04:19;4.30;;;2.87;;
12962;SDS011;6546;49.882;8.666;2023-02-18T09:06:47;3.63;;;2.90;;
12962;SDS011;6546;49.882;8.666;2023-02-18T09:09:14;2.97;;;2.43;;
12962;SDS011;6546;49.882;8.666;2023-02-18T09:11:41;3.40;;;2.80;;
12962;SDS011;6546;49.882;8.666;2023-02-18T09:14:08;4.30;;;2.30;;
12962;SDS011;6546;49.882;8.666;2023-02-18T09:16:35;3.20;;;2.20;;
12962;SDS011;6546;49.882;8.666;2023-02-18T09:19:03;2.40;;;2.20;;
12962;SDS011;6546;49.882;8.666;2023-02-18T09:21:31;2.90;;;2.43;;
12962;SDS011;6546;49.882;8.666;2023-02-18T09:23:58;2.70;;;2.43;;
12962;SDS011;6546;49.882;8.666;2023-02-18T09:26:26;3.57;;;2.90;;
12962;SDS011;6546;49.882;8.666;2023-02-18T09:28:53;3.13;;;2.83;;
12962;SDS011;6546;49.882;8.666;2023-02-18T09:31:22;3.00;;;2.73;;
12962;SDS011;6546;49.882;8.666;2023-02-18T09:33:52;4.77;;;3.50;;
12962;SDS011;6546;49.882;8.666;2023-02-18T09:36:20;4.90;;;3.27;;
12962;SDS011;6546;49.882;8.666;2023-02-18T09:38:48;3.90;;;3.20;;
12962;SDS011;6546;49.882;8.666;2023-02-18T09:41:24;4.13;;;3.73;;
12962;SDS011;6546;49.882;8.666;2023-02-18T09:43:56;3.27;;;2.97;;
12962;SDS011;6546;49.882;8.666;2023-02-18T09:46:27;3.30;;;3.00;;
12962;SDS011;6546;49.882;8.666;2023-02-18T09:48:57;3.83;;;3.33;;
12962;SDS011;6546;49.882;8.666;2023-02-18T09:51:29;3.50;;;3.20;;
12962;SDS011;6546;49.882;8.666;2023-02-18T09:54:01;4.90;;;3.10;;
12962;SDS011;6546;49.882;8.666;2023-02-18T09:56:28;3.43;;;3.13;;
12962;SDS011;6546;49.882;8.666;2023-02-18T09:58:58;4.50;;;3.70;;
12962;SDS011;6546;49.882;8.666;2023-02-18T10:01:30;3.77;;;3.47;;
12962;SDS011;6546;49.882;8.666;2023-02-18T10:04:09;5.30;;;3.47;;
12962;SDS011;6546;49.882;8.666;2023-02-18T10:06:40;4.37;;;3.63;;
12962;SDS011;6546;49.882;8.666;2023-02-18T10:09:12;3.93;;;3.53;;
12962;SDS011;6546;49.882;8.666;2023-02-18T10:11:45;7.13;;;4.10;;
12962;SDS011;6546;49.882;8.666;2023-02-18T10:14:16;3.83;;;3.43;;
12962;SDS011;6546;49.882;8.666;2023-02-18T10:16:43;5.63;;;3.50;;
12962;SDS011;6546;49.882;8.666;2023-02-18T10:19:17;6.07;;;3.10;;
12962;SDS011;6546;49.882;8.666;2023-02-18T10:21:47;3.90;;;2.90;;
12962;SDS011;6546;49.882;8.666;2023-02-18T10:24:18;3.30;;;3.00;;
12962;SDS011;6546;49.882;8.666;2023-02-18T10:26:53;5.47;;;2.90;;
12962;SDS011;6546;49.882;8.666;2023-02-18T10:29:20;3.53;;;2.40;;
12962;SDS011;6546;49.882;8.666;2023-02-18T10:31:49;4.80;;;2.70;;
12962;SDS011;6546;49.882;8.666;2023-02-18T10:34:22;4.63;;;2.60;;
12962;SDS011;6546;49.882;8.666;2023-02-18T10:37:02;2.20;;;2.00;;
12962;SDS011;6546;49.882;8.666;2023-02-18T10:39:54;4.17;;;2.43;;
12962;SDS011;6546;49.882;8.666;2023-02-18T10:42:30;5.60;;;2.53;;
12962;SDS011;6546;49.882;8.666;2023-02-18T10:45:08;4.65;;;2.50;;
12962;SDS011;6546;49.882;8.666;2023-02-18T10:47:46;3.77;;;1.73;;
12962;SDS011;6546;49.882;8.666;2023-02-18T10:50:25;3.33;;;2.00;;
12962;SDS011;6546;49.882;8.666;2023-02-18T10:52:56;5.10;;;2.20;;
12962;SDS011;6546;49.882;8.666;2023-02-18T10:55:34;7.83;;;2.50;;
12962;SDS011;6546;49.882;8.666;2023-02-18T10:58:03;3.20;;;1.83;;
12962;SDS011;6546;49.882;8.666;2023-02-18T11:00:33;2.60;;;2.20;;
12962;SDS011;6546;49.882;8.666;2023-02-18T11:03:11;2.60;;;2.00;;
12962;SDS011;6546;49.882;8.666;2023-02-18T11:05:47;3.17;;;1.70;;
12962;SDS011;6546;49.882;8.666;2023-02-18T11:08:20;3.50;;;2.10;;
12962;SDS011;6546;49.882;8.666;2023-02-18T11:10:51;2.50;;;1.77;;
12962;SDS011;6546;49.882;8.666;2023-02-18T11:13:23;2.33;;;2.03;;
12962;SDS011;6546;49.882;8.666;2023-02-18T11:15:54;2.03;;;1.77;;
12962;SDS011;6546;49.882;8.666;2023-02-18T11:18:28;2.30;;;1.30;;
12962;SDS011;6546;49.882;8.666;2023-02-18T11:21:00;3.03;;;2.03;;
12962;SDS011;6546;49.882;8.666;2023-02-18T11:23:29;2.03;;;1.53;;
12962;SDS011;6546;49.882;8.666;2023-02-18T11:26:13;2.20;;;1.40;;
12962;SDS011;6546;49.882;8.666;2023-02-18T11:28:47;2.27;;;1.53;;
12962;SDS011;6546;49.882;8.666;2023-02-18T11:31:24;2.80;;;1.50;;
12962;SDS011;6546;49.882;8.666;2023-02-18T11:33:55;3.17;;;1.40;;
12962;SDS011;6546;49.882;8.666;2023-02-18T11:36:28;3.00;;;1.83;;
12962;SDS011;6546;49.882;8.666;2023-02-18T11:38:57;5.73;;;1.50;;
12962;SDS011;6546;49.882;8.666;2023-02-18T11:41:31;2.20;;;1.47;;
12962;SDS011;6546;49.882;8.666;2023-02-18T11:44:00;2.10;;;1.60;;
12962;SDS011;6546;49.882;8.666;2023-02-18T11:46:30;3.20;;;1.77;;
12962;SDS011;6546;49.882;8.666;2023-02-18T11:48:58;2.33;;;1.70;;
12962;SDS011;6546;49.882;8.666;2023-02-18T11:51:45;2.40;;;1.73;;
12962;SDS011;6546;49.882;8.666;2023-02-18T11:54:21;2.30;;;1.43;;
12962;SDS011;6546;49.882;8.666;2023-02-18T11:56:55;1.80;;;1.50;;
12962;SDS011;6546;49.882;8.666;2023-02-18T11:59:23;2.10;;;1.57;;
12962;SDS011;6546;49.882;8.666;2023-02-18T12:01:50;3.03;;;1.63;;
12962;SDS011;6546;49.882;8.666;2023-02-18T12:04:25;3.43;;;1.70;;
12962;SDS011;6546;49.882;8.666;2023-02-18T12:07:00;3.63;;;1.63;;
12962;SDS011;6546;49.882;8.666;2023-02-18T12:09:39;4.43;;;1.57;;
12962;SDS011;6546;49.882;8.666;2023-02-18T12:12:12;3.27;;;1.53;;
12962;SDS011;6546;49.882;8.666;2023-02-18T12:14:43;3.23;;;1.70;;
12962;SDS011;6546;49.882;8.666;2023-02-18T12:17:16;2.90;;;1.70;;
12962;SDS011;6546;49.882;8.666;2023-02-18T12:19:57;2.70;;;1.57;;
12962;SDS011;6546;49.882;8.666;2023-02-18T12:22:33;3.27;;;1.50;;
12962;SDS011;6546;49.882;8.666;2023-02-18T12:25:15;3.23;;;1.60;;
12962;SDS011;6546;49.882;8.666;2023-02-18T12:27:59;3.63;;;1.50;;
12962;SDS011;6546;49.882;8.666;2023-02-18T12:30:41;10.17;;;1.63;;
12962;SDS011;6546;49.882;8.666;2023-02-18T12:33:21;5.37;;;1.50;;
12962;SDS011;6546;49.882;8.666;2023-02-18T12:36:02;6.20;;;1.70;;
12962;SDS011;6546;49.882;8.666;2023-02-18T12:38:58;3.00;;;1.40;;
12962;SDS011;6546;49.882;8.666;2023-02-18T12:41:35;3.33;;;1.80;;
12962;SDS011;6546;49.882;8.666;2023-02-18T12:44:18;3.40;;;1.60;;
12962;SDS011;6546;49.882;8.666;2023-02-18T12:49:58;3.03;;;1.60;;
12962;SDS011;6546;49.882;8.666;2023-02-18T12:52:45;1.87;;;1.30;;
12962;SDS011;6546;49.882;8.666;2023-02-18T12:55:24;3.83;;;1.70;;
12962;SDS011;6546;49.882;8.666;2023-02-18T12:58:04;2.93;;;1.50;;
12962;SDS011;6546;49.882;8.666;2023-02-18T13:00:53;5.47;;;2.30;;
12962;SDS011;6546;49.882;8.666;2023-02-18T13:03:43;2.50;;;1.60;;
12962;SDS011;6546;49.882;8.666;2023-02-18T13:06:36;3.17;;;1.93;;
12962;SDS011;6546;49.882;8.666;2023-02-18T13:09:16;2.80;;;1.80;;
12962;SDS011;6546;49.882;8.666;2023-02-18T13:11:56;4.77;;;2.00;;
12962;SDS011;6546;49.882;8.666;2023-02-18T13:14:37;2.37;;;1.73;;
12962;SDS011;6546;49.882;8.666;2023-02-18T13:17:15;5.50;;;2.27;;
12962;SDS011;6546;49.882;8.666;2023-02-18T13:19:49;4.40;;;1.90;;
12962;SDS011;6546;49.882;8.666;2023-02-18T13:22:20;1.90;;;1.73;;
12962;SDS011;6546;49.882;8.666;2023-02-18T13:24:49;2.80;;;1.83;;
12962;SDS011;6546;49.882;8.666;2023-02-18T13:27:18;5.00;;;1.60;;
12962;SDS011;6546;49.882;8.666;2023-02-18T13:29:56;2.80;;;1.80;;
12962;SDS011;6546;49.882;8.666;2023-02-18T13:32:36;3.10;;;1.93;;
12962;SDS011;6546;49.882;8.666;2023-02-18T13:35:16;4.43;;;2.47;;
12962;SDS011;6546;49.882;8.666;2023-02-18T13:37:51;2.87;;;1.60;;
12962;SDS011;6546;49.882;8.666;2023-02-18T13:40:36;2.77;;;1.63;;
12962;SDS011;6546;49.882;8.666;2023-02-18T13:43:18;3.63;;;1.80;;
12962;SDS011;6546;49.882;8.666;2023-02-18T13:46:02;2.63;;;1.50;;
12962;SDS011;6546;49.882;8.666;2023-02-18T13:48:38;4.07;;;1.80;;
12962;SDS011;6546;49.882;8.666;2023-02-18T13:51:09;4.17;;;1.90;;
12962;SDS011;6546;49.882;8.666;2023-02-18T13:53:49;5.20;;;1.80;;
12962;SDS011;6546;49.882;8.666;2023-02-18T13:56:19;2.93;;;2.10;;
12962;SDS011;6546;49.882;8.666;2023-02-18T13:58:48;4.13;;;1.60;;
12962;SDS011;6546;49.882;8.666;2023-02-18T14:01:22;3.77;;;1.77;;
12962;SDS011;6546;49.882;8.666;2023-02-18T14:04:03;6.07;;;1.90;;
12962;SDS011;6546;49.882;8.666;2023-02-18T14:13:19;4.60;;;1.80;;
12962;SDS011;6546;49.882;8.666;2023-02-18T14:15:54;2.37;;;1.83;;
12962;SDS011;6546;49.882;8.666;2023-02-18T14:18:25;2.97;;;1.90;;
12962;SDS011;6546;49.882;8.666;2023-02-18T14:24:10;5.87;;;1.90;;
12962;SDS011;6546;49.882;8.666;2023-02-18T14:26:44;4.10;;;2.17;;
12962;SDS011;6546;49.882;8.666;2023-02-18T14:29:21;1.87;;;1.57;;
12962;SDS011;6546;49.882;8.666;2023-02-18T14:31:54;3.30;;;1.67;;
12962;SDS011;6546;49.882;8.666;2023-02-18T14:37:31;4.67;;;1.67;;
12962;SDS011;6546;49.882;8.666;2023-02-18T14:40:20;3.93;;;1.87;;
12962;SDS011;6546;49.882;8.666;2023-02-18T14:42:55;1.83;;;1.40;;
12962;SDS011;6546;49.882;8.666;2023-02-18T14:45:37;3.70;;;1.60;;
12962;SDS011;6546;49.882;8.666;2023-02-18T14:48:26;2.37;;;1.80;;
12962;SDS011;6546;49.882;8.666;2023-02-18T14:51:13;3.83;;;1.60;;
12962;SDS011;6546;49.882;8.666;2023-02-18T14:53:43;2.40;;;1.50;;
12962;SDS011;6546;49.882;8.666;2023-02-18T14:56:12;3.90;;;2.10;;
12962;SDS011;6546;49.882;8.666;2023-02-18T14:58:42;3.00;;;1.90;;
12962;SDS011;6546;49.882;8.666;2023-02-18T15:01:18;3.23;;;1.57;;
12962;SDS011;6546;49.882;8.666;2023-02-18T15:03:47;1.70;;;1.57;;
12962;SDS011;6546;49.882;8.666;2023-02-18T15:06:22;3.80;;;2.00;;
12962;SDS011;6546;49.882;8.666;2023-02-18T15:08:52;3.60;;;1.80;;
12962;SDS011;6546;49.882;8.666;2023-02-18T15:11:19;2.93;;;1.70;;
12962;SDS011;6546;49.882;8.666;2023-02-18T15:13:50;3.73;;;1.70;;
12962;SDS011;6546;49.882;8.666;2023-02-18T15:16:23;2.87;;;1.90;;
12962;SDS011;6546;49.882;8.666;2023-02-18T15:18:55;3.00;;;2.30;;
12962;SDS011;6546;49.882;8.666;2023-02-18T15:21:26;4.40;;;2.33;;
12962;SDS011;6546;49.882;8.666;2023-02-18T15:24:01;2.93;;;1.77;;
12962;SDS011;6546;49.882;8.666;2023-02-18T15:26:32;4.07;;;1.70;;
12962;SDS011;6546;49.882;8.666;2023-02-18T15:29:00;4.20;;;1.90;;
12962;SDS011;6546;49.882;8.666;2023-02-18T15:31:29;2.97;;;1.73;;
12962;SDS011;6546;49.882;8.666;2023-02-18T15:34:00;4.27;;;2.57;;
12962;SDS011;6546;49.882;8.666;2023-02-18T15:36:28;5.57;;;2.60;;
12962;SDS011;6546;49.882;8.666;2023-02-18T15:38:57;4.87;;;2.00;;
12962;SDS011;6546;49.882;8.666;2023-02-18T15:41:30;2.13;;;1.60;;
12962;SDS011;6546;49.882;8.666;2023-02-18T15:44:01;7.30;;;1.93;;
12962;SDS011;6546;49.882;8.666;2023-02-18T15:46:32;2.47;;;1.60;;
12962;SDS011;6546;49.882;8.666;2023-02-18T15:48:59;3.07;;;1.90;;
12962;SDS011;6546;49.882;8.666;2023-02-18T15:51:27;3.43;;;2.40;;